Time;durP1;ratioP1;P1;durP2;ratioP2;P2;SDS_P1;SDS_P2;PMS_P1;PMS_P2;Temp;Humidity;BMP_temperature;BMP_pressure;BME280_temperature;BME280_humidity;BME280_pressure;Samples;Min_cycle;Max_cycle;Signal;HPM_P1;HPM_P2
2022/11/23 00:00:22;;;;;;;31.48;19.88;;;;;;;;;;5081051;22;20048;-72
2022/11/23 00:02:52;;;;;;;30.30;19.00;;;;;;;;;;5073170;28;20093;-73
2022/11/23 00:05:17;;;;;;;31.60;18.75;;;;;;;;;;5073312;28;20043;-73
2022/11/23 00:07:42;;;;;;;34.05;21.25;;;;;;;;;;5072494;28;20103;-72
2022/11/23 00:10:08;;;;;;;31.50;19.73;;;;;;;;;;5073717;28;20082;-72
2022/11/23 00:12:33;;;;;;;33.10;20.75;;;;;;;;;;5075877;28;20366;-72
2022/11/23 00:15:00;;;;;;;31.50;20.00;;;;;;;;;;5076907;28;20475;-72
2022/11/23 00:17:25;;;;;;;31.05;19.58;;;;;;;;;;5077107;28;20020;-72
2022/11/23 00:19:50;;;;;;;31.63;20.02;;;;;;;;;;5077022;28;20516;-72
2022/11/23 00:22:16;;;;;;;28.65;19.15;;;;;;;;;;5076935;28;20048;-72
2022/11/23 00:24:41;;;;;;;30.55;19.02;;;;;;;;;;5076713;28;20086;-73
2022/11/23 00:27:06;;;;;;;33.80;19.73;;;;;;;;;;5076787;28;20048;-73
2022/11/23 00:29:32;;;;;;;30.75;20.58;;;;;;;;;;5075380;28;20025;-72
2022/11/23 00:31:57;;;;;;;32.08;20.10;;;;;;;;;;5076188;28;20024;-73
2022/11/23 00:34:23;;;;;;;32.90;19.90;;;;;;;;;;5075493;28;20111;-72
2022/11/23 00:36:50;;;;;;;40.40;22.63;;;;;;;;;;5084446;22;20403;-71
2022/11/23 00:39:15;;;;;;;31.50;20.02;;;;;;;;;;5075963;28;20029;-71
2022/11/23 00:41:41;;;;;;;30.27;17.63;;;;;;;;;;5075495;28;20443;-71
2022/11/23 00:44:07;;;;;;;27.85;18.70;;;;;;;;;;5076125;28;20043;-71
2022/11/23 00:46:32;;;;;;;30.55;18.98;;;;;;;;;;5076078;28;20393;-71
2022/11/23 00:48:59;;;;;;;29.13;19.13;;;;;;;;;;5075908;28;20459;-70
2022/11/23 00:51:29;;;;;;;30.52;19.23;;;;;;;;;;5076309;28;20419;-71
2022/11/23 00:53:54;;;;;;;34.90;23.27;;;;;;;;;;5074425;28;20028;-71
2022/11/23 00:56:22;;;;;;;25.73;17.58;;;;;;;;;;5074488;28;20107;-71
2022/11/23 00:58:48;;;;;;;30.88;21.15;;;;;;;;;;5074830;28;20609;-71
2022/11/23 01:01:14;;;;;;;25.73;17.10;;;;;;;;;;5076414;28;20203;-71
2022/11/23 01:03:41;;;;;;;29.10;19.42;;;;;;;;;;5074859;28;20024;-71
2022/11/23 01:06:08;;;;;;;29.00;19.42;;;;;;;;;;5074846;28;20028;-70
2022/11/23 01:08:33;;;;;;;27.42;18.75;;;;;;;;;;5074821;28;20021;-71
2022/11/23 01:11:04;;;;;;;32.50;20.58;;;;;;;;;;5075903;28;20182;-71
2022/11/23 01:13:32;;;;;;;29.55;18.70;;;;;;;;;;5074762;28;20029;-71
2022/11/23 01:15:58;;;;;;;28.02;17.67;;;;;;;;;;5075838;28;20031;-71
2022/11/23 01:18:23;;;;;;;27.10;18.92;;;;;;;;;;5075833;28;20076;-70
2022/11/23 01:20:49;;;;;;;28.27;17.70;;;;;;;;;;5075130;28;20450;-70
2022/11/23 01:23:14;;;;;;;26.58;17.55;;;;;;;;;;5075769;28;20069;-71
2022/11/23 01:25:40;;;;;;;22.75;16.15;;;;;;;;;;5074192;28;20090;-72
2022/11/23 01:28:05;;;;;;;25.90;16.90;;;;;;;;;;5074302;28;20108;-72
2022/11/23 01:30:31;;;;;;;24.30;16.85;;;;;;;;;;5074213;28;20596;-72
2022/11/23 01:32:56;;;;;;;25.42;16.30;;;;;;;;;;5074302;28;20024;-71
2022/11/23 01:35:23;;;;;;;26.35;16.73;;;;;;;;;;5074323;28;20028;-71
2022/11/23 01:37:50;;;;;;;25.48;15.90;;;;;;;;;;5093501;28;20047;-71
2022/11/23 01:40:15;;;;;;;24.20;17.08;;;;;;;;;;5077672;28;20027;-71
2022/11/23 01:42:55;;;;;;;27.95;17.42;;;;;;;;;;5077460;28;20056;-72
2022/11/23 01:45:40;;;;;;;28.80;17.73;;;;;;;;;;5095508;28;20048;-73
2022/11/23 01:48:36;;;;;;;29.55;19.10;;;;;;;;;;5077275;28;20038;-73
2022/11/23 01:51:03;;;;;;;28.58;18.35;;;;;;;;;;5074154;28;20036;-71
2022/11/23 01:53:29;;;;;;;28.35;18.77;;;;;;;;;;5095297;28;20427;-72
2022/11/23 01:55:58;;;;;;;26.70;17.40;;;;;;;;;;5076719;28;20028;-72
2022/11/23 01:58:24;;;;;;;22.98;16.02;;;;;;;;;;5076940;28;20051;-72
2022/11/23 02:00:50;;;;;;;27.90;17.30;;;;;;;;;;5077122;28;20032;-72
2022/11/23 02:03:16;;;;;;;28.40;17.73;;;;;;;;;;5076627;28;20050;-71
2022/11/23 02:05:49;;;;;;;27.38;17.05;;;;;;;;;;5094901;28;20028;-70
2022/11/23 02:08:19;;;;;;;25.55;17.08;;;;;;;;;;5076842;28;20032;-71
2022/11/23 02:10:44;;;;;;;30.42;18.13;;;;;;;;;;5076883;28;20519;-71
2022/11/23 02:13:11;;;;;;;28.40;18.13;;;;;;;;;;5076644;28;20059;-71
2022/11/23 02:15:36;;;;;;;26.40;16.95;;;;;;;;;;5095086;28;20016;-71
2022/11/23 02:18:22;;;;;;;24.85;16.80;;;;;;;;;;5094924;28;20537;-71
2022/11/23 02:20:47;;;;;;;26.55;16.98;;;;;;;;;;5094888;28;20437;-72
2022/11/23 02:23:20;;;;;;;29.33;18.38;;;;;;;;;;5094638;28;20024;-72
2022/11/23 02:25:45;;;;;;;27.75;17.17;;;;;;;;;;5076479;28;20470;-72
2022/11/23 02:28:15;;;;;;;25.63;16.20;;;;;;;;;;5076512;28;20028;-72
2022/11/23 02:30:42;;;;;;;26.65;16.90;;;;;;;;;;5076788;28;20024;-71
2022/11/23 02:33:08;;;;;;;25.45;16.80;;;;;;;;;;5059638;28;20013;-71
2022/11/23 02:35:33;;;;;;;28.30;17.88;;;;;;;;;;5076578;28;20088;-71
2022/11/23 02:38:00;;;;;;;28.70;18.95;;;;;;;;;;5094314;28;20071;-71
2022/11/23 02:40:27;;;;;;;32.38;20.60;;;;;;;;;;5075745;28;20051;-71
2022/11/23 02:42:53;;;;;;;29.02;18.40;;;;;;;;;;5094176;28;20027;-70
2022/11/23 02:45:22;;;;;;;26.65;17.35;;;;;;;;;;5094208;28;20039;-71
2022/11/23 02:47:48;;;;;;;29.85;19.77;;;;;;;;;;5076004;28;20351;-70
2022/11/23 02:50:14;;;;;;;29.10;18.95;;;;;;;;;;5076153;28;20035;-70
2022/11/23 02:52:41;;;;;;;30.38;18.35;;;;;;;;;;5076203;28;20016;-71
2022/11/23 02:55:07;;;;;;;29.80;18.02;;;;;;;;;;5076317;28;20122;-72
2022/11/23 02:57:32;;;;;;;28.02;17.92;;;;;;;;;;5094220;28;20046;-72
2022/11/23 02:59:58;;;;;;;26.60;18.33;;;;;;;;;;5076058;28;20111;-73
2022/11/23 03:02:23;;;;;;;33.25;19.73;;;;;;;;;;5094385;28;20074;-72
2022/11/23 03:04:49;;;;;;;29.65;18.30;;;;;;;;;;5094198;28;20040;-71
2022/11/23 03:07:17;;;;;;;29.08;18.45;;;;;;;;;;5076076;28;20020;-71
2022/11/23 03:09:43;;;;;;;28.92;18.15;;;;;;;;;;5075925;28;20039;-71
2022/11/23 03:12:09;;;;;;;34.00;21.05;;;;;;;;;;5076141;28;20023;-70
2022/11/23 03:14:37;;;;;;;34.25;18.90;;;;;;;;;;5075803;28;20032;-70
2022/11/23 03:17:03;;;;;;;31.15;18.75;;;;;;;;;;5075654;28;20375;-71
2022/11/23 03:19:33;;;;;;;29.83;18.10;;;;;;;;;;5075882;28;20050;-71
2022/11/23 03:22:00;;;;;;;28.30;17.85;;;;;;;;;;5075891;28;20028;-71
2022/11/23 03:24:29;;;;;;;30.77;19.40;;;;;;;;;;5075658;28;20032;-71
2022/11/23 03:26:55;;;;;;;30.92;18.48;;;;;;;;;;5075559;28;20355;-71
2022/11/23 03:29:25;;;;;;;29.48;19.33;;;;;;;;;;5094043;28;20115;-70
2022/11/23 03:31:52;;;;;;;28.88;18.42;;;;;;;;;;5075775;28;20051;-71
2022/11/23 03:34:18;;;;;;;31.17;19.23;;;;;;;;;;5075801;28;20432;-71
2022/11/23 03:36:43;;;;;;;29.30;18.08;;;;;;;;;;5075459;28;20044;-71
2022/11/23 03:39:09;;;;;;;94.82;46.53;;;;;;;;;;5075578;28;20032;-71
2022/11/23 03:41:55;;;;;;;41.25;26.67;;;;;;;;;;5093552;28;20127;-72
2022/11/23 03:44:25;;;;;;;;;;;;;;;;;;5077101;28;20032;-72
2022/11/23 03:46:51;;;;;;;50.70;39.23;;;;;;;;;;5079878;28;19915;-72
2022/11/23 03:49:16;;;;;;;30.00;18.42;;;;;;;;;;5098079;28;20262;-72
2022/11/23 03:51:42;;;;;;;29.63;20.27;;;;;;;;;;5097195;28;20016;-72
2022/11/23 03:54:07;;;;;;;28.83;17.83;;;;;;;;;;5078935;28;20070;-71
2022/11/23 03:56:33;;;;;;;27.10;17.95;;;;;;;;;;5079359;28;20016;-71
2022/11/23 03:58:59;;;;;;;30.88;18.88;;;;;;;;;;5079358;28;20059;-71
2022/11/23 04:01:25;;;;;;;26.60;16.25;;;;;;;;;;5097684;28;20429;-71
2022/11/23 04:03:57;;;;;;;30.05;18.27;;;;;;;;;;5079319;28;20024;-71
2022/11/23 04:06:34;;;;;;;27.92;17.88;;;;;;;;;;5097271;28;20467;-71
2022/11/23 04:09:07;;;;;;;30.58;21.05;;;;;;;;;;5078790;28;20576;-71
2022/11/23 04:11:59;;;;;;;30.45;19.25;;;;;;;;;;5094163;28;20056;-70
2022/11/23 04:14:24;;;;;;;32.53;19.65;;;;;;;;;;5079081;28;20068;-70
2022/11/23 04:16:50;;;;;;;31.08;19.85;;;;;;;;;;5078897;28;20019;-70
2022/11/23 04:19:16;;;;;;;31.17;19.70;;;;;;;;;;5097124;28;20070;-71
2022/11/23 04:21:42;;;;;;;32.03;21.23;;;;;;;;;;5079080;28;20024;-70
2022/11/23 04:24:08;;;;;;;32.47;19.77;;;;;;;;;;5078858;28;20470;-71
2022/11/23 04:26:35;;;;;;;29.25;17.48;;;;;;;;;;5078626;28;20477;-70
2022/11/23 04:29:00;;;;;;;29.88;18.75;;;;;;;;;;5078697;28;20028;-71
2022/11/23 04:31:26;;;;;;;30.98;19.85;;;;;;;;;;5078388;28;20020;-70
2022/11/23 04:34:05;;;;;;;30.87;19.17;;;;;;;;;;5078706;28;20090;-71
2022/11/23 04:36:31;;;;;;;31.40;20.98;;;;;;;;;;5096580;28;20138;-70
2022/11/23 04:38:57;;;;;;;29.63;20.50;;;;;;;;;;5078523;28;20028;-70
2022/11/23 04:41:32;;;;;;;30.55;20.88;;;;;;;;;;5078384;28;20032;-72
2022/11/23 04:43:58;;;;;;;29.83;18.52;;;;;;;;;;5078429;28;20039;-71
2022/11/23 04:46:24;;;;;;;30.45;19.33;;;;;;;;;;5078650;28;20024;-72
2022/11/23 04:48:49;;;;;;;29.83;20.00;;;;;;;;;;5078186;28;20102;-72
2022/11/23 04:51:16;;;;;;;30.65;20.75;;;;;;;;;;5078624;28;20008;-72
2022/11/23 04:53:42;;;;;;;26.67;17.13;;;;;;;;;;5078340;28;20031;-72
2022/11/23 04:56:08;;;;;;;26.48;17.85;;;;;;;;;;5076857;28;20016;-70
2022/11/23 04:58:37;;;;;;;26.60;18.58;;;;;;;;;;5078149;28;20111;-71
2022/11/23 05:01:02;;;;;;;26.35;17.58;;;;;;;;;;5078659;28;20099;-70
2022/11/23 05:04:02;;;;;;;23.98;17.17;;;;;;;;;;5079956;22;20057;-72
2022/11/23 05:06:28;;;;;;;24.15;16.90;;;;;;;;;;5074556;28;20028;-72
2022/11/23 05:08:55;;;;;;;26.02;18.05;;;;;;;;;;5074745;28;20085;-71
2022/11/23 05:11:39;;;;;;;26.85;18.60;;;;;;;;;;5056570;28;20021;-72
2022/11/23 05:14:06;;;;;;;25.95;17.63;;;;;;;;;;5053250;28;20040;-71
2022/11/23 05:16:33;;;;;;;26.92;17.45;;;;;;;;;;5054305;28;20058;-72
2022/11/23 05:18:59;;;;;;;26.77;17.00;;;;;;;;;;5053901;28;20028;-72
2022/11/23 05:21:24;;;;;;;24.17;16.30;;;;;;;;;;5054107;28;20021;-74
2022/11/23 05:23:51;;;;;;;22.52;16.55;;;;;;;;;;5053942;28;20040;-72
2022/11/23 05:26:18;;;;;;;22.55;16.95;;;;;;;;;;5053550;28;20539;-72
2022/11/23 05:28:43;;;;;;;24.25;16.60;;;;;;;;;;5053883;28;20032;-73
2022/11/23 05:31:12;;;;;;;23.58;16.33;;;;;;;;;;5053246;28;20551;-72
2022/11/23 05:33:37;;;;;;;23.05;16.25;;;;;;;;;;5052754;28;20029;-72
2022/11/23 05:36:04;;;;;;;25.25;18.42;;;;;;;;;;5053769;28;20074;-71
2022/11/23 05:38:35;;;;;;;26.98;17.98;;;;;;;;;;5053913;28;20024;-72
2022/11/23 05:41:05;;;;;;;25.90;17.27;;;;;;;;;;5053452;28;20048;-71
2022/11/23 05:43:31;;;;;;;26.48;18.70;;;;;;;;;;5054214;28;20075;-70
2022/11/23 05:45:57;;;;;;;27.42;18.40;;;;;;;;;;5053746;28;20021;-73
2022/11/23 05:48:23;;;;;;;27.52;20.08;;;;;;;;;;5053960;28;20021;-72
2022/11/23 05:50:54;;;;;;;24.00;15.90;;;;;;;;;;5053653;28;20017;-74
2022/11/23 05:53:26;;;;;;;20.83;14.80;;;;;;;;;;5037806;28;20431;-72
2022/11/23 05:56:02;;;;;;;19.40;12.90;;;;;;;;;;5053722;28;20375;-72
2022/11/23 05:58:34;;;;;;;23.65;15.95;;;;;;;;;;5053484;28;20391;-74
2022/11/23 06:01:00;;;;;;;28.60;19.63;;;;;;;;;;5053384;28;20036;-74
2022/11/23 06:03:29;;;;;;;26.95;18.00;;;;;;;;;;5037058;28;20578;-73
2022/11/23 06:05:55;;;;;;;25.25;17.52;;;;;;;;;;5053246;28;20123;-72
2022/11/23 06:08:27;;;;;;;22.33;16.98;;;;;;;;;;5052718;28;20024;-73
2022/11/23 06:10:53;;;;;;;24.52;17.00;;;;;;;;;;5020048;28;20025;-74
2022/11/23 06:13:18;;;;;;;21.27;16.30;;;;;;;;;;5053082;28;20066;-73
2022/11/23 06:15:44;;;;;;;23.73;16.55;;;;;;;;;;5052978;28;20583;-72
2022/11/23 06:18:10;;;;;;;22.80;17.08;;;;;;;;;;5053050;28;20032;-73
2022/11/23 06:20:43;;;;;;;22.88;15.95;;;;;;;;;;5052191;28;20036;-74
2022/11/23 06:23:10;;;;;;;22.58;16.52;;;;;;;;;;5052003;28;20039;-72
2022/11/23 06:25:37;;;;;;;25.20;17.95;;;;;;;;;;5051733;28;20028;-72
2022/11/23 06:28:08;;;;;;;24.52;16.90;;;;;;;;;;5051935;28;20021;-73
2022/11/23 06:30:40;;;;;;;24.33;18.75;;;;;;;;;;5051676;28;20033;-71
2022/11/23 06:33:06;;;;;;;25.55;17.27;;;;;;;;;;5051364;28;20021;-72
2022/11/23 06:35:39;;;;;;;26.42;18.48;;;;;;;;;;5051882;28;20047;-73
2022/11/23 06:38:05;;;;;;;25.00;17.13;;;;;;;;;;5052721;28;20035;-73
2022/11/23 06:40:31;;;;;;;22.30;17.52;;;;;;;;;;5052363;28;20025;-74
2022/11/23 06:42:59;;;;;;;31.73;23.42;;;;;;;;;;5052439;28;20087;-74
2022/11/23 06:45:33;;;;;;;27.38;18.08;;;;;;;;;;5053227;28;20582;-72
2022/11/23 06:48:05;;;;;;;22.75;15.75;;;;;;;;;;5052473;28;20083;-73
2022/11/23 06:50:33;;;;;;;26.10;16.08;;;;;;;;;;5051071;28;20029;-71
2022/11/23 06:52:58;;;;;;;21.75;14.52;;;;;;;;;;5051081;28;20029;-71
2022/11/23 06:55:41;;;;;;;28.00;18.30;;;;;;;;;;5050986;28;20021;-71
2022/11/23 06:58:08;;;;;;;25.77;17.63;;;;;;;;;;5051091;28;20029;-72
2022/11/23 07:00:34;;;;;;;22.10;15.70;;;;;;;;;;5051528;28;20016;-73
2022/11/23 07:03:01;;;;;;;21.05;14.95;;;;;;;;;;5052512;28;20036;-73
2022/11/23 07:05:30;;;;;;;92.57;66.85;;;;;;;;;;5054427;28;20043;-72
2022/11/23 07:07:56;;;;;;;35.03;24.77;;;;;;;;;;5054544;28;20029;-75
2022/11/23 07:10:25;;;;;;;22.25;16.13;;;;;;;;;;5054270;28;20059;-76
2022/11/23 07:13:02;;;;;;;25.58;19.13;;;;;;;;;;5053776;28;20029;-74
2022/11/23 07:15:28;;;;;;;26.20;18.77;;;;;;;;;;5054421;28;20031;-75
2022/11/23 07:17:53;;;;;;;21.83;15.98;;;;;;;;;;5054186;28;20546;-75
2022/11/23 07:20:20;;;;;;;24.13;17.25;;;;;;;;;;5053718;28;20040;-73
2022/11/23 07:22:46;;;;;;;26.42;18.10;;;;;;;;;;5037938;28;20024;-75
2022/11/23 07:25:15;;;;;;;26.92;16.67;;;;;;;;;;5054060;28;20071;-75
2022/11/23 07:27:41;;;;;;;22.30;16.02;;;;;;;;;;5054478;28;20154;-73
2022/11/23 07:30:06;;;;;;;25.83;17.90;;;;;;;;;;5054124;28;20115;-72
2022/11/23 07:32:32;;;;;;;25.17;16.85;;;;;;;;;;5037540;28;20020;-73
2022/11/23 07:34:58;;;;;;;26.17;17.13;;;;;;;;;;5072249;28;20025;-74
2022/11/23 07:37:24;;;;;;;25.27;17.52;;;;;;;;;;5053964;28;20066;-74
2022/11/23 07:39:51;;;;;;;48.35;30.67;;;;;;;;;;5054346;28;20032;-73
2022/11/23 07:42:17;;;;;;;25.38;18.05;;;;;;;;;;5037883;28;20020;-74
2022/11/23 07:44:43;;;;;;;26.40;17.65;;;;;;;;;;5072178;28;20043;-73
2022/11/23 07:47:08;;;;;;;25.50;17.52;;;;;;;;;;5054195;28;20021;-74
2022/11/23 07:49:34;;;;;;;27.17;17.60;;;;;;;;;;5072071;28;20058;-74
2022/11/23 07:51:59;;;;;;;28.90;19.75;;;;;;;;;;5072143;28;20013;-74
2022/11/23 07:54:25;;;;;;;25.05;16.77;;;;;;;;;;5054106;28;20119;-74
2022/11/23 07:56:50;;;;;;;27.70;18.55;;;;;;;;;;5054332;28;20016;-73
2022/11/23 07:59:15;;;;;;;27.60;18.70;;;;;;;;;;5054148;28;20052;-74
2022/11/23 08:01:41;;;;;;;26.90;18.15;;;;;;;;;;5072037;28;20167;-74
2022/11/23 08:04:07;;;;;;;37.28;25.88;;;;;;;;;;5053665;28;20045;-74
2022/11/23 08:06:33;;;;;;;23.13;17.10;;;;;;;;;;5072312;28;20052;-73
2022/11/23 08:08:58;;;;;;;24.92;16.77;;;;;;;;;;5053845;28;20017;-73
2022/11/23 08:11:24;;;;;;;21.02;15.63;;;;;;;;;;5071940;28;20471;-74
2022/11/23 08:13:49;;;;;;;21.35;15.65;;;;;;;;;;5053970;28;20021;-74
2022/11/23 08:16:15;;;;;;;27.05;20.02;;;;;;;;;;5053956;28;20033;-74
2022/11/23 08:18:40;;;;;;;37.50;27.35;;;;;;;;;;5037316;28;20133;-74
2022/11/23 08:21:06;;;;;;;23.05;16.70;;;;;;;;;;5072008;28;20025;-75
2022/11/23 08:23:31;;;;;;;26.85;19.95;;;;;;;;;;5071923;28;20029;-71
2022/11/23 08:25:56;;;;;;;22.00;15.70;;;;;;;;;;5054372;28;20052;-72
2022/11/23 08:28:22;;;;;;;20.40;16.15;;;;;;;;;;5072527;28;20366;-72
2022/11/23 08:30:48;;;;;;;25.23;17.73;;;;;;;;;;5072886;28;20082;-73
2022/11/23 08:33:13;;;;;;;23.85;15.98;;;;;;;;;;5057572;28;20027;-72
2022/11/23 08:35:40;;;;;;;19.40;14.35;;;;;;;;;;5075529;28;20033;-74
2022/11/23 08:38:06;;;;;;;20.67;16.10;;;;;;;;;;5075564;28;20081;-73
2022/11/23 08:40:32;;;;;;;28.17;18.98;;;;;;;;;;5075723;28;20032;-75
2022/11/23 08:42:57;;;;;;;22.88;16.25;;;;;;;;;;5057134;28;20470;-73
2022/11/23 08:45:22;;;;;;;19.85;14.93;;;;;;;;;;5057423;28;20032;-74
2022/11/23 08:47:48;;;;;;;33.88;24.65;;;;;;;;;;5075201;28;20025;-72
2022/11/23 08:50:14;;;;;;;22.48;17.13;;;;;;;;;;5075049;28;20040;-74
2022/11/23 08:52:39;;;;;;;18.58;14.77;;;;;;;;;;5057099;28;20023;-74
2022/11/23 08:55:05;;;;;;;21.55;14.80;;;;;;;;;;5075014;28;20028;-74
2022/11/23 08:57:30;;;;;;;16.90;13.20;;;;;;;;;;5074882;28;20030;-74
2022/11/23 08:59:56;;;;;;;17.48;13.68;;;;;;;;;;5074429;28;20483;-74
2022/11/23 09:02:21;;;;;;;20.42;15.52;;;;;;;;;;5040372;28;20025;-71
2022/11/23 09:04:47;;;;;;;21.48;16.75;;;;;;;;;;5074545;28;20109;-74
2022/11/23 09:07:13;;;;;;;21.75;16.20;;;;;;;;;;5074593;28;20116;-74
2022/11/23 09:09:39;;;;;;;17.55;15.32;;;;;;;;;;5056691;28;20021;-74
2022/11/23 09:12:04;;;;;;;16.13;12.75;;;;;;;;;;5074814;28;20455;-74
2022/11/23 09:14:30;;;;;;;35.78;25.80;;;;;;;;;;5074715;28;20028;-74
2022/11/23 09:16:55;;;;;;;18.58;14.43;;;;;;;;;;5074918;28;20017;-72
2022/11/23 09:19:20;;;;;;;15.45;11.73;;;;;;;;;;5056262;28;20418;-72
2022/11/23 09:21:46;;;;;;;14.27;11.77;;;;;;;;;;5039607;28;20119;-72
2022/11/23 09:24:11;;;;;;;13.80;11.50;;;;;;;;;;5074384;28;20028;-73
2022/11/23 09:26:37;;;;;;;24.60;17.25;;;;;;;;;;5074187;28;20516;-72
2022/11/23 09:29:03;;;;;;;18.13;14.55;;;;;;;;;;5056618;28;20337;-72
2022/11/23 09:31:28;;;;;;;15.13;11.27;;;;;;;;;;5056386;28;20127;-73
2022/11/23 09:33:54;;;;;;;16.83;12.75;;;;;;;;;;5056348;28;20107;-73
2022/11/23 09:36:21;;;;;;;14.82;12.15;;;;;;;;;;5056047;28;20093;-72
2022/11/23 09:38:47;;;;;;;12.48;10.50;;;;;;;;;;5074322;28;20039;-73
2022/11/23 09:41:18;;;;;;;14.75;11.75;;;;;;;;;;5074194;28;20423;-72
2022/11/23 09:43:51;;;;;;;15.55;13.38;;;;;;;;;;5055142;28;20467;-72
2022/11/23 09:46:26;;;;;;;20.30;16.00;;;;;;;;;;5073958;28;20082;-72
2022/11/23 09:49:01;;;;;;;14.15;11.40;;;;;;;;;;5072969;28;20028;-72
2022/11/23 09:51:26;;;;;;;19.40;14.88;;;;;;;;;;5055412;28;20024;-73
2022/11/23 09:53:52;;;;;;;16.27;12.80;;;;;;;;;;5055626;28;20512;-73
2022/11/23 09:56:29;;;;;;;13.43;10.80;;;;;;;;;;5056272;28;20510;-73
2022/11/23 09:58:55;;;;;;;13.50;11.40;;;;;;;;;;5073771;28;20031;-73
2022/11/23 10:01:21;;;;;;;14.05;11.32;;;;;;;;;;5073302;28;20103;-72
2022/11/23 10:03:47;;;;;;;12.75;10.90;;;;;;;;;;5073367;28;20463;-72
2022/11/23 10:06:26;;;;;;;27.40;17.75;;;;;;;;;;5073421;28;20078;-71
2022/11/23 10:08:51;;;;;;;29.52;20.13;;;;;;;;;;5055641;28;20440;-72
2022/11/23 10:11:25;;;;;;;43.38;28.55;;;;;;;;;;5073187;28;20021;-71
2022/11/23 10:13:54;;;;;;;32.53;20.40;;;;;;;;;;5072753;28;20107;-74
2022/11/23 10:16:19;;;;;;;20.25;13.43;;;;;;;;;;5073453;28;20020;-74
2022/11/23 10:18:57;;;;;;;23.23;18.70;;;;;;;;;;5055195;28;20055;-73
2022/11/23 10:21:43;;;;;;;32.67;25.90;;;;;;;;;;5072794;28;20029;-72
2022/11/23 10:24:18;;;;;;;16.90;11.73;;;;;;;;;;5055274;28;20426;-74
2022/11/23 10:26:45;;;;;;;21.15;15.55;;;;;;;;;;5072574;28;20025;-72
2022/11/23 10:29:10;;;;;;;18.00;12.73;;;;;;;;;;5072895;28;20027;-71
2022/11/23 10:31:36;;;;;;;23.48;15.32;;;;;;;;;;5072923;28;20029;-72
2022/11/23 10:34:12;;;;;;;19.30;14.32;;;;;;;;;;5055220;28;20025;-71
2022/11/23 10:36:38;;;;;;;19.63;13.65;;;;;;;;;;5072905;28;20029;-72
2022/11/23 10:39:14;;;;;;;70.82;39.53;;;;;;;;;;5073102;28;20104;-73
2022/11/23 10:41:40;;;;;;;100.63;60.88;;;;;;;;;;5054837;28;20043;-74
2022/11/23 10:44:21;;;;;;;22.95;17.10;;;;;;;;;;5055240;28;20466;-73
2022/11/23 10:46:46;;;;;;;23.48;14.80;;;;;;;;;;5072646;28;20033;-73
2022/11/23 10:49:14;;;;;;;18.88;13.15;;;;;;;;;;5072917;28;20028;-72
2022/11/23 10:51:47;;;;;;;21.83;15.20;;;;;;;;;;5072914;28;20455;-72
2022/11/23 10:54:26;;;;;;;34.55;21.67;;;;;;;;;;5054592;28;20033;-72
2022/11/23 10:56:53;;;;;;;56.00;41.23;;;;;;;;;;5072810;28;20020;-73
2022/11/23 10:59:41;;;;;;;60.65;47.33;;;;;;;;;;5072733;28;20070;-74
2022/11/23 11:02:09;;;;;;;170.60;121.78;;;;;;;;;;5054570;28;20037;-73
2022/11/23 11:04:34;;;;;;;81.15;61.35;;;;;;;;;;5054677;28;20068;-74
2022/11/23 11:07:17;;;;;;;27.20;20.77;;;;;;;;;;5054878;28;20067;-73
2022/11/23 11:09:47;;;;;;;21.58;14.95;;;;;;;;;;5072973;28;20029;-73
2022/11/23 11:12:16;;;;;;;25.92;18.58;;;;;;;;;;5073119;28;20031;-72
2022/11/23 11:15:14;;;;;;;286.55;137.30;;;;;;;;;;5073427;28;20439;-72
2022/11/23 11:17:40;;;;;;;420.45;263.05;;;;;;;;;;5072297;28;20032;-72
2022/11/23 11:20:41;;;;;;;38.42;23.30;;;;;;;;;;5089945;28;20016;-71
2022/11/23 11:23:06;;;;;;;;;;;;;;;;;;4991528;28;20061;-72
2022/11/23 11:25:36;;;;;;;26.63;18.02;;;;;;;;;;5053639;28;20370;-73
2022/11/23 11:28:22;;;;;;;25.20;18.02;;;;;;;;;;5092854;28;20074;-73
2022/11/23 11:30:56;;;;;;;24.63;15.48;;;;;;;;;;5092645;28;20032;-72
2022/11/23 11:33:29;;;;;;;26.67;19.55;;;;;;;;;;5092989;28;20028;-72
2022/11/23 11:35:55;;;;;;;25.15;17.92;;;;;;;;;;5093199;28;20082;-73
2022/11/23 11:38:30;;;;;;;27.10;17.60;;;;;;;;;;5092770;28;20020;-73
2022/11/23 11:40:58;;;;;;;29.45;19.30;;;;;;;;;;5093323;28;20043;-73
2022/11/23 11:43:25;;;;;;;37.35;27.33;;;;;;;;;;5093295;28;20024;-73
2022/11/23 11:45:53;;;;;;;31.73;21.73;;;;;;;;;;5074822;28;20549;-73
2022/11/23 11:48:26;;;;;;;34.78;23.17;;;;;;;;;;5075307;28;20024;-72
2022/11/23 11:50:52;;;;;;;30.58;18.85;;;;;;;;;;5092923;28;20685;-73
2022/11/23 11:53:40;;;;;;;43.72;31.65;;;;;;;;;;5093261;28;20028;-72
2022/11/23 11:56:26;;;;;;;29.35;19.75;;;;;;;;;;5079485;28;20078;-72
2022/11/23 11:58:58;;;;;;;32.55;22.80;;;;;;;;;;5073674;28;20505;-73
2022/11/23 12:01:35;;;;;;;67.32;44.10;;;;;;;;;;5092511;28;20489;-73
2022/11/23 12:04:05;;;;;;;38.88;28.45;;;;;;;;;;5092104;28;20080;-73
2022/11/23 12:06:37;;;;;;;79.15;54.40;;;;;;;;;;5077162;28;20099;-74
2022/11/23 12:09:12;;;;;;;44.05;31.52;;;;;;;;;;5078092;28;20028;-72
2022/11/23 12:11:38;;;;;;;48.40;31.45;;;;;;;;;;5096061;28;20138;-73
2022/11/23 12:14:04;;;;;;;125.80;69.78;;;;;;;;;;5096332;28;20425;-71
2022/11/23 12:16:32;;;;;;;88.25;61.90;;;;;;;;;;5078470;28;20027;-72
2022/11/23 12:19:07;;;;;;;42.90;29.33;;;;;;;;;;5096275;28;20023;-72
2022/11/23 12:21:44;;;;;;;38.50;21.42;;;;;;;;;;5096211;28;20039;-73
2022/11/23 12:24:16;;;;;;;30.55;17.75;;;;;;;;;;5095823;28;20020;-73
2022/11/23 12:26:52;;;;;;;35.08;22.25;;;;;;;;;;5095867;28;20088;-72
2022/11/23 12:29:23;;;;;;;29.27;17.92;;;;;;;;;;5078221;28;20092;-73
2022/11/23 12:31:50;;;;;;;18.63;12.07;;;;;;;;;;5096284;28;20029;-73
2022/11/23 12:34:16;;;;;;;23.35;14.68;;;;;;;;;;5078276;28;20038;-72
2022/11/23 12:37:20;;;;;;;20.50;12.75;;;;;;;;;;5096153;28;20458;-73
2022/11/23 12:39:53;;;;;;;22.27;14.77;;;;;;;;;;4993967;28;20038;-71
2022/11/23 12:42:37;;;;;;;28.92;19.10;;;;;;;;;;4994022;28;20493;-71
2022/11/23 12:45:22;;;;;;;26.27;16.38;;;;;;;;;;5041200;28;20505;-73
2022/11/23 12:47:47;;;;;;;26.65;17.67;;;;;;;;;;5095567;28;20043;-72
2022/11/23 12:50:13;;;;;;;23.40;15.02;;;;;;;;;;5095536;28;20020;-73
2022/11/23 12:52:51;;;;;;;28.35;16.05;;;;;;;;;;5095503;28;20060;-72
2022/11/23 12:55:23;;;;;;;45.63;31.15;;;;;;;;;;5077596;28;20028;-72
2022/11/23 12:57:49;;;;;;;16.27;12.70;;;;;;;;;;5095354;28;20053;-71
2022/11/23 13:00:18;;;;;;;30.83;23.23;;;;;;;;;;5094686;28;20478;-72
2022/11/23 13:03:00;;;;;;;32.88;25.83;;;;;;;;;;5094814;28;20266;-71
2022/11/23 13:05:38;;;;;;;21.20;14.93;;;;;;;;;;5094641;28;20036;-71
2022/11/23 13:08:09;;;;;;;25.48;17.98;;;;;;;;;;5076914;28;20085;-73
2022/11/23 13:10:52;;;;;;;29.00;21.27;;;;;;;;;;5076949;28;20027;-72
2022/11/23 13:13:30;;;;;;;27.02;17.08;;;;;;;;;;5095013;28;20486;-73
2022/11/23 13:15:55;;;;;;;217.05;115.90;;;;;;;;;;5094248;28;20489;-73
2022/11/23 13:18:30;;;;;;;22.02;14.15;;;;;;;;;;5075173;28;20024;-73
2022/11/23 13:21:08;;;;;;;22.75;16.17;;;;;;;;;;5094771;28;20570;-73
2022/11/23 13:23:37;;;;;;;79.75;62.20;;;;;;;;;;5091228;28;20556;-71
2022/11/23 13:26:13;;;;;;;25.60;19.38;;;;;;;;;;5076363;28;20024;-72
2022/11/23 13:28:39;;;;;;;31.42;20.95;;;;;;;;;;5094018;28;20036;-72
2022/11/23 13:31:13;;;;;;;41.35;32.03;;;;;;;;;;5093416;28;20020;-72
2022/11/23 13:33:39;;;;;;;33.00;24.38;;;;;;;;;;5093860;28;20485;-75
2022/11/23 13:36:08;;;;;;;27.42;16.60;;;;;;;;;;5093847;28;20016;-74
2022/11/23 13:38:51;;;;;;;96.70;59.75;;;;;;;;;;5076086;28;20028;-74
2022/11/23 13:41:32;;;;;;;65.65;40.67;;;;;;;;;;5094977;28;20067;-73
2022/11/23 13:43:57;;;;;;;;;;;;;;;;;;5094333;28;20119;-73
2022/11/23 13:46:27;;;;;;;50.73;30.93;;;;;;;;;;5075885;28;19991;-73
2022/11/23 13:48:58;;;;;;;197.10;117.28;;;;;;;;;;5094565;28;20063;-75
2022/11/23 13:51:28;;;;;;;78.95;48.53;;;;;;;;;;5075777;28;20027;-73
2022/11/23 13:54:15;;;;;;;92.43;54.80;;;;;;;;;;5094907;28;20036;-74
2022/11/23 13:56:41;;;;;;;58.53;44.90;;;;;;;;;;5075616;28;20144;-74
2022/11/23 13:59:19;;;;;;;75.53;57.05;;;;;;;;;;5093690;28;20060;-74
2022/11/23 14:02:01;;;;;;;73.18;50.00;;;;;;;;;;5094039;28;20024;-74
2022/11/23 14:04:28;;;;;;;120.55;76.60;;;;;;;;;;5072709;28;20463;-74
2022/11/23 14:06:56;;;;;;;54.47;38.90;;;;;;;;;;5073922;28;20021;-75
2022/11/23 14:09:40;;;;;;;78.43;57.78;;;;;;;;;;5072494;28;20081;-74
2022/11/23 14:12:08;;;;;;;36.10;25.27;;;;;;;;;;5072807;28;20028;-74
2022/11/23 14:14:54;;;;;;;92.90;66.55;;;;;;;;;;5073617;28;20031;-74
2022/11/23 14:17:29;;;;;;;86.32;55.85;;;;;;;;;;5073682;28;20466;-75
2022/11/23 14:20:14;;;;;;;67.80;42.80;;;;;;;;;;5072960;28;20021;-74
2022/11/23 14:22:57;;;;;;;85.57;53.97;;;;;;;;;;5072864;28;20036;-75
2022/11/23 14:25:30;;;;;;;69.13;46.30;;;;;;;;;;5071918;28;20375;-74
2022/11/23 14:28:01;;;;;;;69.05;42.88;;;;;;;;;;5072918;28;20425;-74
2022/11/23 14:30:43;;;;;;;25.27;18.75;;;;;;;;;;5071683;28;20040;-74